createdAt,value
2022-07-25T00:01:20.731Z,21.83
2022-07-25T00:06:51.957Z,21.78
2022-07-25T00:12:24.090Z,21.74
2022-07-25T00:17:55.252Z,21.68
2022-07-25T00:23:26.112Z,21.60
2022-07-25T00:28:57.153Z,21.56
2022-07-25T00:34:28.144Z,21.56
2022-07-25T00:39:58.932Z,21.52
2022-07-25T00:45:30.632Z,21.43
2022-07-25T00:51:01.751Z,21.41
2022-07-25T00:56:33.696Z,21.36
2022-07-25T01:02:04.826Z,21.31
2022-07-25T01:07:37.608Z,21.30
2022-07-25T01:13:08.672Z,21.25
2022-07-25T01:18:39.873Z,21.20
2022-07-25T01:24:13.799Z,21.19
2022-07-25T01:29:45.012Z,21.15
2022-07-25T01:35:16.068Z,21.10
2022-07-25T01:40:47.263Z,21.03
2022-07-25T01:46:18.609Z,20.98
2022-07-25T01:51:50.117Z,20.95
2022-07-25T01:57:21.041Z,20.91
2022-07-25T02:03:13.801Z,20.87
2022-07-25T02:08:45.013Z,20.80
2022-07-25T02:14:15.848Z,20.76
2022-07-25T02:19:46.692Z,20.73
2022-07-25T02:25:17.610Z,20.68
2022-07-25T02:30:48.818Z,20.61
2022-07-25T02:36:20.230Z,20.60
2022-07-25T02:41:51.596Z,20.56
2022-07-25T02:47:23.832Z,20.50
2022-07-25T02:52:54.741Z,20.47
2022-07-25T02:58:25.726Z,20.43
2022-07-25T03:03:57.514Z,20.39
2022-07-25T03:09:44.501Z,20.37
2022-07-25T03:15:15.605Z,20.31
2022-07-25T03:20:46.871Z,20.30
2022-07-25T03:26:17.799Z,20.28
2022-07-25T03:31:49.096Z,20.25
2022-07-25T03:37:20.527Z,20.17
2022-07-25T03:42:51.679Z,20.15
2022-07-25T03:48:22.816Z,20.13
2022-07-25T03:54:03.231Z,20.12
2022-07-25T03:59:34.743Z,20.10
2022-07-25T04:05:07.480Z,20.08
2022-07-25T04:10:38.733Z,19.73
2022-07-25T04:16:14.588Z,19.37
2022-07-25T04:21:49.375Z,19.18
2022-07-25T04:27:20.105Z,19.01
2022-07-25T04:32:50.911Z,18.91
2022-07-25T04:38:21.831Z,18.79
2022-07-25T04:43:53.077Z,18.76
2022-07-25T04:49:24.399Z,18.75
2022-07-25T04:54:55.544Z,18.86
2022-07-25T05:00:26.836Z,18.99
2022-07-25T05:05:57.865Z,19.08
2022-07-25T05:11:29.226Z,19.15
2022-07-25T05:17:00.677Z,19.30
2022-07-25T05:22:32.380Z,19.40
2022-07-25T05:28:03.771Z,19.43
2022-07-25T05:33:35.265Z,19.46
2022-07-25T05:39:06.525Z,19.54
2022-07-25T05:44:37.950Z,19.62
2022-07-25T05:50:09.536Z,19.76
2022-07-25T05:55:40.882Z,19.93
2022-07-25T06:01:13.278Z,20.06
2022-07-25T06:06:51.068Z,20.23
2022-07-25T06:12:24.286Z,20.44
2022-07-25T06:17:55.716Z,20.66
2022-07-25T06:23:27.965Z,20.95
2022-07-25T06:28:59.096Z,21.27
2022-07-25T06:34:30.218Z,21.56
2022-07-25T06:40:01.360Z,21.80
2022-07-25T06:45:32.588Z,22.01
2022-07-25T06:51:04.733Z,22.23
2022-07-25T06:56:35.733Z,22.45
2022-07-25T07:02:06.869Z,22.64
2022-07-25T07:07:37.993Z,22.84
2022-07-25T07:13:14.236Z,23.03
2022-07-25T07:18:49.170Z,23.23
2022-07-25T07:24:24.227Z,23.43
2022-07-25T07:29:55.665Z,23.62
2022-07-25T07:35:27.515Z,23.78
2022-07-25T07:40:59.177Z,23.96
2022-07-25T07:46:30.170Z,24.10
2022-07-25T07:52:01.264Z,24.27
2022-07-25T07:57:32.424Z,24.48
2022-07-25T08:03:03.999Z,24.66
2022-07-25T08:08:34.921Z,24.86
2022-07-25T08:14:07.639Z,25.05
2022-07-25T08:19:38.933Z,25.24
2022-07-25T08:25:10.984Z,25.40
2022-07-25T08:30:42.952Z,25.56
2022-07-25T08:36:14.308Z,25.63
2022-07-25T08:41:46.052Z,25.69
2022-07-25T08:47:18.401Z,25.84
2022-07-25T08:52:50.367Z,26.02
2022-07-25T08:58:21.269Z,26.16
2022-07-25T09:03:52.420Z,26.30
2022-07-25T09:09:34.797Z,26.46
2022-07-25T09:15:06.972Z,26.58
2022-07-25T09:20:43.772Z,26.69
2022-07-25T09:26:15.502Z,26.85
2022-07-25T09:31:46.505Z,27.00
2022-07-25T09:37:20.563Z,27.15
2022-07-25T09:42:52.678Z,27.29
2022-07-25T09:48:23.974Z,27.44
2022-07-25T09:53:55.201Z,27.57
2022-07-25T09:59:26.386Z,27.72
2022-07-25T10:04:57.480Z,27.85
2022-07-25T10:10:37.816Z,27.98
2022-07-25T10:16:34.996Z,28.00
2022-07-25T10:22:05.819Z,28.19
2022-07-25T10:27:43.902Z,28.35
2022-07-25T10:33:18.905Z,28.49
2022-07-25T10:38:57.569Z,28.55
2022-07-25T10:44:40.425Z,28.68
2022-07-25T10:50:29.315Z,28.82
2022-07-25T10:56:09.827Z,28.98
2022-07-25T11:01:42.782Z,29.11
2022-07-25T11:07:17.920Z,29.24
2022-07-25T11:12:49.337Z,29.36
2022-07-25T11:18:40.481Z,29.49
2022-07-25T11:24:11.679Z,29.56
2022-07-25T11:29:42.588Z,29.61
2022-07-25T11:35:15.717Z,29.68
2022-07-25T11:40:47.137Z,29.73
2022-07-25T11:46:18.713Z,29.63
2022-07-25T11:51:50.069Z,29.65
2022-07-25T11:57:26.473Z,29.83
2022-07-25T12:03:08.605Z,29.89
2022-07-25T12:08:42.272Z,29.99
2022-07-25T12:14:14.491Z,30.13
2022-07-25T12:19:47.488Z,30.22
2022-07-25T12:25:18.939Z,30.29
2022-07-25T12:30:55.951Z,30.39
2022-07-25T12:36:27.819Z,30.45
2022-07-25T12:41:59.032Z,30.48
2022-07-25T12:47:30.232Z,30.52
2022-07-25T12:53:02.111Z,30.57
2022-07-25T12:58:33.205Z,30.61
2022-07-25T13:04:07.376Z,30.64
2022-07-25T13:09:38.562Z,30.66
2022-07-25T13:15:10.021Z,30.65
2022-07-25T13:20:41.494Z,30.67
2022-07-25T13:26:12.851Z,30.67
2022-07-25T13:31:44.185Z,30.67
2022-07-25T13:37:15.697Z,30.68
2022-07-25T13:42:46.981Z,30.66
2022-07-25T13:48:33.197Z,30.65
2022-07-25T13:54:04.555Z,30.66
2022-07-25T13:59:36.666Z,30.64
2022-07-25T14:05:07.640Z,30.59
2022-07-25T14:10:38.858Z,30.57
2022-07-25T14:16:09.885Z,30.55
2022-07-25T14:21:41.422Z,30.51
2022-07-25T14:27:12.971Z,30.49
2022-07-25T14:32:44.415Z,30.43
2022-07-25T14:38:15.822Z,30.39
2022-07-25T14:43:47.095Z,30.27
2022-07-25T14:49:18.766Z,30.15
2022-07-25T14:54:50.334Z,30.16
2022-07-25T15:00:23.761Z,30.21
2022-07-25T15:05:59.256Z,30.21
2022-07-25T15:11:30.873Z,30.17
2022-07-25T15:17:02.162Z,30.10
2022-07-25T15:22:33.760Z,30.06
2022-07-25T15:28:05.036Z,30.05
2022-07-25T15:33:36.194Z,30.01
2022-07-25T15:39:08.566Z,29.97
2022-07-25T15:44:40.092Z,29.95
2022-07-25T15:50:11.018Z,29.93
2022-07-25T15:55:42.597Z,29.91
2022-07-25T16:01:14.337Z,29.89
2022-07-25T16:06:45.527Z,29.84
2022-07-25T16:12:16.777Z,29.81
2022-07-25T16:17:49.870Z,29.77
2022-07-25T16:23:20.992Z,29.74
2022-07-25T16:28:57.659Z,29.69
2022-07-25T16:34:29.326Z,29.67
2022-07-25T16:40:01.013Z,29.61
2022-07-25T16:45:32.172Z,29.56
2022-07-25T16:51:03.061Z,29.52
2022-07-25T16:56:34.070Z,29.47
2022-07-25T17:02:05.545Z,29.41
2022-07-25T17:07:39.055Z,29.35
2022-07-25T17:13:11.130Z,29.31
2022-07-25T17:18:43.030Z,29.25
2022-07-25T17:24:14.164Z,29.20
2022-07-25T17:29:46.041Z,29.14
2022-07-25T17:35:19.251Z,29.08
2022-07-25T17:40:50.639Z,28.96
2022-07-25T17:46:25.716Z,28.88
2022-07-25T17:51:57.548Z,28.78
2022-07-25T17:57:28.820Z,28.67
2022-07-25T18:03:00.344Z,28.56
2022-07-25T18:08:35.667Z,28.46
2022-07-25T18:14:07.448Z,28.35
2022-07-25T18:19:38.931Z,28.30
2022-07-25T18:25:12.250Z,28.22
2022-07-25T18:30:43.956Z,28.13
2022-07-25T18:36:15.300Z,28.08
2022-07-25T18:41:46.680Z,28.00
2022-07-25T18:47:17.873Z,27.93
2022-07-25T18:52:49.292Z,27.86
2022-07-25T18:58:20.293Z,27.78
2022-07-25T19:03:51.971Z,27.70
2022-07-25T19:09:23.913Z,27.64
2022-07-25T19:14:55.879Z,27.57
2022-07-25T19:20:27.378Z,27.52
2022-07-25T19:25:58.726Z,27.46
2022-07-25T19:31:30.080Z,27.41
2022-07-25T19:37:01.457Z,27.35
2022-07-25T19:42:33.352Z,27.30
2022-07-25T19:48:05.325Z,27.26
2022-07-25T19:53:36.810Z,27.22
2022-07-25T19:59:07.608Z,27.17
2022-07-25T20:04:38.387Z,27.15
2022-07-25T20:10:10.459Z,27.10
2022-07-25T20:15:41.948Z,27.04
2022-07-25T20:21:12.962Z,26.99
2022-07-25T20:26:44.131Z,26.94
2022-07-25T20:32:15.446Z,26.89
2022-07-25T20:37:46.891Z,26.84
2022-07-25T20:43:18.825Z,26.80
2022-07-25T20:48:50.164Z,26.75
2022-07-25T20:54:21.171Z,26.72
2022-07-25T20:59:52.836Z,26.68
2022-07-25T21:05:24.709Z,26.67
2022-07-25T21:10:56.005Z,26.62
2022-07-25T21:16:27.494Z,26.59
2022-07-25T21:21:58.689Z,26.55
2022-07-25T21:27:29.789Z,26.53
2022-07-25T21:33:02.178Z,26.48
2022-07-25T21:38:38.409Z,26.44
2022-07-25T21:44:10.372Z,26.41
2022-07-25T21:50:00.098Z,26.36
2022-07-25T21:55:31.203Z,26.34
2022-07-25T22:01:02.313Z,26.31
2022-07-25T22:06:33.486Z,26.27
2022-07-25T22:12:07.059Z,26.26
2022-07-25T22:17:48.361Z,26.23
2022-07-25T22:23:20.741Z,26.20
2022-07-25T22:28:51.509Z,26.18
2022-07-25T22:34:22.679Z,26.15
2022-07-25T22:39:57.712Z,26.14
2022-07-25T22:45:31.938Z,26.13
2022-07-25T22:51:03.443Z,26.12
2022-07-25T22:56:34.550Z,26.08
2022-07-25T23:02:05.664Z,26.05
2022-07-25T23:07:36.825Z,26.03
2022-07-25T23:13:07.873Z,26.00
2022-07-25T23:18:38.932Z,25.99
2022-07-25T23:24:10.345Z,25.97
2022-07-25T23:29:41.775Z,25.97
2022-07-25T23:35:13.381Z,25.94
2022-07-25T23:40:44.399Z,25.95
2022-07-25T23:46:15.198Z,25.90
2022-07-25T23:51:47.735Z,25.89
2022-07-25T23:57:19.004Z,25.77
